sensor_id;sensor_type;location;lat;lon;timestamp;P1;durP1;ratioP1;P2;durP2;ratioP2
73693;SDS011;61997;53.974;11.670;2023-03-14T00:00:33;42.15;;;22.92;;
73693;SDS011;61997;53.974;11.670;2023-03-14T00:02:58;41.38;;;22.83;;
73693;SDS011;61997;53.974;11.670;2023-03-14T00:05:24;41.50;;;24.25;;
73693;SDS011;61997;53.974;11.670;2023-03-14T00:07:49;40.58;;;24.23;;
73693;SDS011;61997;53.974;11.670;2023-03-14T00:10:15;43.67;;;24.83;;
73693;SDS011;61997;53.974;11.670;2023-03-14T00:12:40;43.33;;;24.83;;
73693;SDS011;61997;53.974;11.670;2023-03-14T00:15:06;50.85;;;26.23;;
73693;SDS011;61997;53.974;11.670;2023-03-14T00:17:33;47.33;;;25.95;;
73693;SDS011;61997;53.974;11.670;2023-03-14T00:19:59;43.78;;;24.80;;
73693;SDS011;61997;53.974;11.670;2023-03-14T00:22:33;45.10;;;25.27;;
73693;SDS011;61997;53.974;11.670;2023-03-14T00:27:27;48.28;;;25.73;;
73693;SDS011;61997;53.974;11.670;2023-03-14T00:29:53;48.13;;;27.00;;
73693;SDS011;61997;53.974;11.670;2023-03-14T00:32:18;54.13;;;27.58;;
73693;SDS011;61997;53.974;11.670;2023-03-14T00:34:43;52.55;;;28.55;;
73693;SDS011;61997;53.974;11.670;2023-03-14T00:37:09;46.78;;;26.17;;
73693;SDS011;61997;53.974;11.670;2023-03-14T00:39:34;50.13;;;25.60;;
73693;SDS011;61997;53.974;11.670;2023-03-14T00:41:59;49.22;;;28.50;;
73693;SDS011;61997;53.974;11.670;2023-03-14T00:44:25;48.78;;;26.40;;
73693;SDS011;61997;53.974;11.670;2023-03-14T00:46:50;48.05;;;27.33;;
73693;SDS011;61997;53.974;11.670;2023-03-14T00:49:16;49.25;;;26.58;;
73693;SDS011;61997;53.974;11.670;2023-03-14T00:51:41;51.65;;;27.38;;
73693;SDS011;61997;53.974;11.670;2023-03-14T00:54:06;49.20;;;26.63;;
73693;SDS011;61997;53.974;11.670;2023-03-14T00:56:32;51.83;;;27.52;;
73693;SDS011;61997;53.974;11.670;2023-03-14T00:58:57;51.20;;;26.38;;
73693;SDS011;61997;53.974;11.670;2023-03-14T01:01:23;50.88;;;27.65;;
73693;SDS011;61997;53.974;11.670;2023-03-14T01:03:52;50.03;;;27.13;;
73693;SDS011;61997;53.974;11.670;2023-03-14T01:06:20;47.80;;;27.60;;
73693;SDS011;61997;53.974;11.670;2023-03-14T01:08:46;49.92;;;27.23;;
73693;SDS011;61997;53.974;11.670;2023-03-14T01:11:13;50.00;;;27.65;;
73693;SDS011;61997;53.974;11.670;2023-03-14T01:13:40;48.45;;;28.05;;
73693;SDS011;61997;53.974;11.670;2023-03-14T01:16:07;43.20;;;26.13;;
73693;SDS011;61997;53.974;11.670;2023-03-14T01:18:34;49.45;;;26.52;;
73693;SDS011;61997;53.974;11.670;2023-03-14T01:21:03;47.05;;;25.38;;
73693;SDS011;61997;53.974;11.670;2023-03-14T01:23:32;47.25;;;27.17;;
73693;SDS011;61997;53.974;11.670;2023-03-14T01:25:57;45.60;;;24.80;;
73693;SDS011;61997;53.974;11.670;2023-03-14T01:28:24;50.13;;;27.60;;
73693;SDS011;61997;53.974;11.670;2023-03-14T01:30:49;42.42;;;24.83;;
73693;SDS011;61997;53.974;11.670;2023-03-14T01:33:14;50.08;;;26.35;;
73693;SDS011;61997;53.974;11.670;2023-03-14T01:35:40;49.25;;;25.55;;
73693;SDS011;61997;53.974;11.670;2023-03-14T01:38:05;49.00;;;25.27;;
73693;SDS011;61997;53.974;11.670;2023-03-14T01:40:31;41.55;;;24.73;;
73693;SDS011;61997;53.974;11.670;2023-03-14T01:42:57;47.35;;;24.40;;
73693;SDS011;61997;53.974;11.670;2023-03-14T01:48:23;40.22;;;24.02;;
73693;SDS011;61997;53.974;11.670;2023-03-14T01:50:52;44.22;;;24.30;;
73693;SDS011;61997;53.974;11.670;2023-03-14T01:53:17;47.33;;;24.75;;
73693;SDS011;61997;53.974;11.670;2023-03-14T01:55:46;43.22;;;24.20;;
73693;SDS011;61997;53.974;11.670;2023-03-14T01:58:14;44.92;;;23.23;;
73693;SDS011;61997;53.974;11.670;2023-03-14T02:00:41;43.22;;;24.15;;
73693;SDS011;61997;53.974;11.670;2023-03-14T02:03:09;42.90;;;24.05;;
73693;SDS011;61997;53.974;11.670;2023-03-14T02:05:38;42.35;;;23.52;;
73693;SDS011;61997;53.974;11.670;2023-03-14T02:08:05;41.38;;;23.73;;
73693;SDS011;61997;53.974;11.670;2023-03-14T02:10:35;43.95;;;23.48;;
73693;SDS011;61997;53.974;11.670;2023-03-14T02:13:04;41.03;;;23.33;;
73693;SDS011;61997;53.974;11.670;2023-03-14T02:15:31;42.67;;;22.63;;
73693;SDS011;61997;53.974;11.670;2023-03-14T02:17:57;39.30;;;22.50;;
73693;SDS011;61997;53.974;11.670;2023-03-14T02:23:07;38.38;;;20.38;;
73693;SDS011;61997;53.974;11.670;2023-03-14T02:28:06;35.33;;;20.08;;
73693;SDS011;61997;53.974;11.670;2023-03-14T02:30:32;37.72;;;20.77;;
73693;SDS011;61997;53.974;11.670;2023-03-14T02:32:59;35.97;;;20.55;;
73693;SDS011;61997;53.974;11.670;2023-03-14T02:35:28;39.95;;;21.08;;
73693;SDS011;61997;53.974;11.670;2023-03-14T02:37:57;37.75;;;21.10;;
73693;SDS011;61997;53.974;11.670;2023-03-14T02:40:28;35.08;;;20.60;;
73693;SDS011;61997;53.974;11.670;2023-03-14T02:42:54;36.13;;;19.85;;
73693;SDS011;61997;53.974;11.670;2023-03-14T02:47:57;35.80;;;18.33;;
73693;SDS011;61997;53.974;11.670;2023-03-14T02:50:26;34.90;;;19.30;;
73693;SDS011;61997;53.974;11.670;2023-03-14T02:52:54;33.03;;;19.02;;
73693;SDS011;61997;53.974;11.670;2023-03-14T02:55:20;29.63;;;17.73;;
73693;SDS011;61997;53.974;11.670;2023-03-14T02:57:46;32.67;;;18.23;;
73693;SDS011;61997;53.974;11.670;2023-03-14T03:00:11;30.48;;;17.88;;
73693;SDS011;61997;53.974;11.670;2023-03-14T03:02:37;34.50;;;17.95;;
73693;SDS011;61997;53.974;11.670;2023-03-14T03:05:02;37.13;;;18.13;;
73693;SDS011;61997;53.974;11.670;2023-03-14T03:07:28;28.40;;;17.00;;
73693;SDS011;61997;53.974;11.670;2023-03-14T03:09:53;28.00;;;16.55;;
73693;SDS011;61997;53.974;11.670;2023-03-14T03:12:18;30.38;;;17.30;;
73693;SDS011;61997;53.974;11.670;2023-03-14T03:14:44;34.10;;;16.70;;
73693;SDS011;61997;53.974;11.670;2023-03-14T03:17:09;32.92;;;15.82;;
73693;SDS011;61997;53.974;11.670;2023-03-14T03:19:35;32.75;;;17.13;;
73693;SDS011;61997;53.974;11.670;2023-03-14T03:22:00;31.77;;;16.50;;
73693;SDS011;61997;53.974;11.670;2023-03-14T03:24:26;27.85;;;16.50;;
73693;SDS011;61997;53.974;11.670;2023-03-14T03:26:52;27.95;;;15.60;;
73693;SDS011;61997;53.974;11.670;2023-03-14T03:29:18;30.52;;;16.25;;
73693;SDS011;61997;53.974;11.670;2023-03-14T03:31:43;28.48;;;15.05;;
73693;SDS011;61997;53.974;11.670;2023-03-14T03:34:10;24.40;;;16.08;;
73693;SDS011;61997;53.974;11.670;2023-03-14T03:36:36;30.02;;;16.05;;
73693;SDS011;61997;53.974;11.670;2023-03-14T03:39:02;30.63;;;15.50;;
73693;SDS011;61997;53.974;11.670;2023-03-14T03:41:28;21.88;;;14.38;;
73693;SDS011;61997;53.974;11.670;2023-03-14T03:43:54;26.85;;;14.85;;
73693;SDS011;61997;53.974;11.670;2023-03-14T03:46:19;24.95;;;14.15;;
73693;SDS011;61997;53.974;11.670;2023-03-14T03:48:45;26.08;;;15.18;;
73693;SDS011;61997;53.974;11.670;2023-03-14T03:51:13;22.45;;;13.20;;
73693;SDS011;61997;53.974;11.670;2023-03-14T03:53:41;25.48;;;13.60;;
73693;SDS011;61997;53.974;11.670;2023-03-14T03:56:08;21.95;;;13.20;;
73693;SDS011;61997;53.974;11.670;2023-03-14T03:58:34;23.20;;;13.48;;
73693;SDS011;61997;53.974;11.670;2023-03-14T04:01:00;24.38;;;13.52;;
73693;SDS011;61997;53.974;11.670;2023-03-14T04:03:26;22.92;;;12.60;;
73693;SDS011;61997;53.974;11.670;2023-03-14T04:05:58;23.63;;;13.20;;
73693;SDS011;61997;53.974;11.670;2023-03-14T04:08:27;23.58;;;11.65;;
73693;SDS011;61997;53.974;11.670;2023-03-14T04:10:56;23.77;;;12.43;;
73693;SDS011;61997;53.974;11.670;2023-03-14T04:13:22;23.08;;;12.48;;
73693;SDS011;61997;53.974;11.670;2023-03-14T04:15:48;22.30;;;12.52;;
73693;SDS011;61997;53.974;11.670;2023-03-14T04:18:13;20.33;;;10.90;;
73693;SDS011;61997;53.974;11.670;2023-03-14T04:20:38;22.80;;;12.45;;
73693;SDS011;61997;53.974;11.670;2023-03-14T04:23:04;21.65;;;12.35;;
73693;SDS011;61997;53.974;11.670;2023-03-14T04:25:29;18.33;;;11.30;;
73693;SDS011;61997;53.974;11.670;2023-03-14T04:27:54;23.73;;;12.48;;
73693;SDS011;61997;53.974;11.670;2023-03-14T04:30:20;20.35;;;11.18;;
73693;SDS011;61997;53.974;11.670;2023-03-14T04:32:45;18.50;;;10.90;;
73693;SDS011;61997;53.974;11.670;2023-03-14T04:35:10;21.58;;;11.73;;
73693;SDS011;61997;53.974;11.670;2023-03-14T04:37:36;20.95;;;10.75;;
73693;SDS011;61997;53.974;11.670;2023-03-14T04:40:01;19.58;;;10.85;;
73693;SDS011;61997;53.974;11.670;2023-03-14T04:42:29;20.05;;;11.20;;
73693;SDS011;61997;53.974;11.670;2023-03-14T04:44:54;18.90;;;10.65;;
73693;SDS011;61997;53.974;11.670;2023-03-14T04:47:20;21.23;;;10.23;;
73693;SDS011;61997;53.974;11.670;2023-03-14T04:49:45;16.88;;;10.50;;
73693;SDS011;61997;53.974;11.670;2023-03-14T04:52:10;16.30;;;9.73;;
73693;SDS011;61997;53.974;11.670;2023-03-14T04:54:36;16.63;;;10.25;;
73693;SDS011;61997;53.974;11.670;2023-03-14T04:57:01;19.48;;;10.77;;
73693;SDS011;61997;53.974;11.670;2023-03-14T04:59:26;17.73;;;9.63;;
73693;SDS011;61997;53.974;11.670;2023-03-14T05:01:52;17.85;;;9.65;;
73693;SDS011;61997;53.974;11.670;2023-03-14T05:04:17;15.38;;;9.68;;
73693;SDS011;61997;53.974;11.670;2023-03-14T05:06:42;19.17;;;9.85;;
73693;SDS011;61997;53.974;11.670;2023-03-14T05:09:08;17.15;;;9.63;;
73693;SDS011;61997;53.974;11.670;2023-03-14T05:11:33;13.95;;;9.00;;
73693;SDS011;61997;53.974;11.670;2023-03-14T05:13:59;15.35;;;9.95;;
73693;SDS011;61997;53.974;11.670;2023-03-14T05:16:24;18.60;;;9.93;;
73693;SDS011;61997;53.974;11.670;2023-03-14T05:18:50;18.95;;;9.80;;
73693;SDS011;61997;53.974;11.670;2023-03-14T05:21:15;16.88;;;8.95;;
73693;SDS011;61997;53.974;11.670;2023-03-14T05:23:41;14.32;;;8.00;;
73693;SDS011;61997;53.974;11.670;2023-03-14T05:26:06;14.85;;;8.38;;
73693;SDS011;61997;53.974;11.670;2023-03-14T05:28:31;14.05;;;7.70;;
73693;SDS011;61997;53.974;11.670;2023-03-14T05:30:57;14.75;;;8.82;;
73693;SDS011;61997;53.974;11.670;2023-03-14T05:33:23;12.57;;;7.72;;
73693;SDS011;61997;53.974;11.670;2023-03-14T05:35:48;14.57;;;8.40;;
73693;SDS011;61997;53.974;11.670;2023-03-14T05:38:13;16.38;;;7.47;;
73693;SDS011;61997;53.974;11.670;2023-03-14T05:40:39;14.30;;;8.05;;
73693;SDS011;61997;53.974;11.670;2023-03-14T05:43:04;12.85;;;7.10;;
73693;SDS011;61997;53.974;11.670;2023-03-14T05:45:29;12.75;;;7.88;;
73693;SDS011;61997;53.974;11.670;2023-03-14T05:47:55;11.45;;;7.15;;
73693;SDS011;61997;53.974;11.670;2023-03-14T05:50:20;14.57;;;7.50;;
73693;SDS011;61997;53.974;11.670;2023-03-14T05:52:45;14.00;;;7.95;;
73693;SDS011;61997;53.974;11.670;2023-03-14T05:55:11;12.80;;;7.68;;
73693;SDS011;61997;53.974;11.670;2023-03-14T05:57:36;12.85;;;7.25;;
73693;SDS011;61997;53.974;11.670;2023-03-14T06:00:02;11.90;;;6.82;;
73693;SDS011;61997;53.974;11.670;2023-03-14T06:02:27;12.95;;;6.72;;
73693;SDS011;61997;53.974;11.670;2023-03-14T06:04:53;12.63;;;7.05;;
73693;SDS011;61997;53.974;11.670;2023-03-14T06:07:18;13.05;;;7.05;;
73693;SDS011;61997;53.974;11.670;2023-03-14T06:09:43;12.15;;;6.93;;
73693;SDS011;61997;53.974;11.670;2023-03-14T06:12:09;11.00;;;6.43;;
73693;SDS011;61997;53.974;11.670;2023-03-14T06:14:34;11.13;;;6.50;;
73693;SDS011;61997;53.974;11.670;2023-03-14T06:16:59;10.90;;;6.10;;
73693;SDS011;61997;53.974;11.670;2023-03-14T06:19:25;11.45;;;5.88;;
73693;SDS011;61997;53.974;11.670;2023-03-14T06:21:51;10.77;;;6.30;;
73693;SDS011;61997;53.974;11.670;2023-03-14T06:24:16;12.52;;;6.20;;
73693;SDS011;61997;53.974;11.670;2023-03-14T06:26:42;10.55;;;5.88;;
73693;SDS011;61997;53.974;11.670;2023-03-14T06:29:07;11.07;;;5.85;;
73693;SDS011;61997;53.974;11.670;2023-03-14T06:31:33;12.13;;;6.30;;
73693;SDS011;61997;53.974;11.670;2023-03-14T06:33:59;8.82;;;4.72;;
73693;SDS011;61997;53.974;11.670;2023-03-14T06:36:24;8.68;;;5.00;;
73693;SDS011;61997;53.974;11.670;2023-03-14T06:38:50;8.73;;;4.97;;
73693;SDS011;61997;53.974;11.670;2023-03-14T06:41:17;11.30;;;6.07;;
73693;SDS011;61997;53.974;11.670;2023-03-14T06:43:42;8.70;;;4.93;;
73693;SDS011;61997;53.974;11.670;2023-03-14T06:46:08;9.30;;;5.72;;
73693;SDS011;61997;53.974;11.670;2023-03-14T06:48:33;9.73;;;5.38;;
73693;SDS011;61997;53.974;11.670;2023-03-14T06:50:59;12.27;;;6.43;;
73693;SDS011;61997;53.974;11.670;2023-03-14T06:53:24;9.40;;;5.05;;
73693;SDS011;61997;53.974;11.670;2023-03-14T06:55:49;9.20;;;5.25;;
73693;SDS011;61997;53.974;11.670;2023-03-14T06:58:15;8.90;;;5.03;;
73693;SDS011;61997;53.974;11.670;2023-03-14T07:00:41;6.00;;;4.38;;
73693;SDS011;61997;53.974;11.670;2023-03-14T07:03:06;8.65;;;4.93;;
73693;SDS011;61997;53.974;11.670;2023-03-14T07:05:32;8.63;;;5.05;;
73693;SDS011;61997;53.974;11.670;2023-03-14T07:07:57;8.32;;;4.60;;
73693;SDS011;61997;53.974;11.670;2023-03-14T07:10:23;8.35;;;4.35;;
73693;SDS011;61997;53.974;11.670;2023-03-14T07:12:48;9.15;;;4.75;;
73693;SDS011;61997;53.974;11.670;2023-03-14T07:15:14;9.18;;;4.88;;
73693;SDS011;61997;53.974;11.670;2023-03-14T07:17:39;6.78;;;4.65;;
73693;SDS011;61997;53.974;11.670;2023-03-14T07:20:05;7.95;;;4.03;;
73693;SDS011;61997;53.974;11.670;2023-03-14T07:22:31;7.43;;;4.43;;
73693;SDS011;61997;53.974;11.670;2023-03-14T07:24:57;6.45;;;3.90;;
73693;SDS011;61997;53.974;11.670;2023-03-14T07:27:22;7.47;;;4.57;;
73693;SDS011;61997;53.974;11.670;2023-03-14T07:29:48;6.65;;;4.07;;
73693;SDS011;61997;53.974;11.670;2023-03-14T07:32:13;8.38;;;4.07;;
73693;SDS011;61997;53.974;11.670;2023-03-14T07:34:40;7.93;;;3.90;;
73693;SDS011;61997;53.974;11.670;2023-03-14T07:37:06;7.70;;;4.85;;
73693;SDS011;61997;53.974;11.670;2023-03-14T07:39:32;5.75;;;3.83;;
73693;SDS011;61997;53.974;11.670;2023-03-14T07:41:57;6.93;;;3.95;;
73693;SDS011;61997;53.974;11.670;2023-03-14T07:44:22;7.78;;;3.70;;
73693;SDS011;61997;53.974;11.670;2023-03-14T07:46:48;7.18;;;4.07;;
73693;SDS011;61997;53.974;11.670;2023-03-14T07:49:13;6.22;;;3.67;;
73693;SDS011;61997;53.974;11.670;2023-03-14T07:51:38;6.53;;;3.70;;
73693;SDS011;61997;53.974;11.670;2023-03-14T07:54:04;6.25;;;3.53;;
73693;SDS011;61997;53.974;11.670;2023-03-14T07:56:29;6.35;;;3.50;;
73693;SDS011;61997;53.974;11.670;2023-03-14T07:58:54;5.63;;;3.22;;
73693;SDS011;61997;53.974;11.670;2023-03-14T08:01:20;6.32;;;3.40;;
73693;SDS011;61997;53.974;11.670;2023-03-14T08:03:45;5.85;;;3.72;;
73693;SDS011;61997;53.974;11.670;2023-03-14T08:06:11;5.50;;;3.65;;
73693;SDS011;61997;53.974;11.670;2023-03-14T08:08:36;5.97;;;3.53;;
73693;SDS011;61997;53.974;11.670;2023-03-14T08:11:02;5.80;;;3.55;;
73693;SDS011;61997;53.974;11.670;2023-03-14T08:13:33;5.40;;;3.45;;
73693;SDS011;61997;53.974;11.670;2023-03-14T08:15:59;6.65;;;3.63;;
73693;SDS011;61997;53.974;11.670;2023-03-14T08:18:24;8.32;;;2.97;;
73693;SDS011;61997;53.974;11.670;2023-03-14T08:20:49;5.47;;;3.03;;
73693;SDS011;61997;53.974;11.670;2023-03-14T08:23:15;5.38;;;3.80;;
73693;SDS011;61997;53.974;11.670;2023-03-14T08:25:40;5.97;;;3.30;;
73693;SDS011;61997;53.974;11.670;2023-03-14T08:28:06;6.43;;;2.88;;
73693;SDS011;61997;53.974;11.670;2023-03-14T08:30:31;6.15;;;3.47;;
73693;SDS011;61997;53.974;11.670;2023-03-14T08:32:57;5.47;;;3.22;;
73693;SDS011;61997;53.974;11.670;2023-03-14T08:35:23;5.63;;;2.90;;
73693;SDS011;61997;53.974;11.670;2023-03-14T08:37:49;5.03;;;3.00;;
73693;SDS011;61997;53.974;11.670;2023-03-14T08:40:14;4.32;;;2.80;;
73693;SDS011;61997;53.974;11.670;2023-03-14T08:42:41;4.95;;;3.15;;
73693;SDS011;61997;53.974;11.670;2023-03-14T08:45:07;5.93;;;3.00;;
73693;SDS011;61997;53.974;11.670;2023-03-14T08:47:33;5.57;;;2.30;;
73693;SDS011;61997;53.974;11.670;2023-03-14T08:49:59;5.43;;;2.70;;
73693;SDS011;61997;53.974;11.670;2023-03-14T08:52:24;5.35;;;2.80;;
73693;SDS011;61997;53.974;11.670;2023-03-14T08:54:50;4.82;;;2.20;;
73693;SDS011;61997;53.974;11.670;2023-03-14T08:57:15;5.28;;;2.55;;
73693;SDS011;61997;53.974;11.670;2023-03-14T08:59:40;5.25;;;2.55;;
73693;SDS011;61997;53.974;11.670;2023-03-14T09:02:08;4.50;;;2.50;;
73693;SDS011;61997;53.974;11.670;2023-03-14T09:04:34;4.55;;;2.15;;
73693;SDS011;61997;53.974;11.670;2023-03-14T09:07:00;4.40;;;2.47;;
73693;SDS011;61997;53.974;11.670;2023-03-14T09:09:25;4.15;;;2.75;;
73693;SDS011;61997;53.974;11.670;2023-03-14T09:11:55;4.30;;;2.42;;
73693;SDS011;61997;53.974;11.670;2023-03-14T09:14:20;3.72;;;2.50;;
73693;SDS011;61997;53.974;11.670;2023-03-14T09:16:46;5.20;;;2.42;;
73693;SDS011;61997;53.974;11.670;2023-03-14T09:19:11;4.60;;;2.80;;
73693;SDS011;61997;53.974;11.670;2023-03-14T09:21:39;3.72;;;1.98;;
73693;SDS011;61997;53.974;11.670;2023-03-14T09:24:05;3.50;;;2.10;;
73693;SDS011;61997;53.974;11.670;2023-03-14T09:26:31;5.05;;;2.60;;
73693;SDS011;61997;53.974;11.670;2023-03-14T09:28:56;4.82;;;2.13;;
73693;SDS011;61997;53.974;11.670;2023-03-14T09:31:22;4.28;;;2.53;;
73693;SDS011;61997;53.974;11.670;2023-03-14T09:33:47;3.65;;;2.30;;
73693;SDS011;61997;53.974;11.670;2023-03-14T09:36:13;4.38;;;2.20;;
73693;SDS011;61997;53.974;11.670;2023-03-14T09:38:39;4.93;;;2.28;;
73693;SDS011;61997;53.974;11.670;2023-03-14T09:41:19;5.07;;;2.17;;
73693;SDS011;61997;53.974;11.670;2023-03-14T09:43:46;4.82;;;2.22;;
73693;SDS011;61997;53.974;11.670;2023-03-14T09:46:12;4.20;;;2.13;;
73693;SDS011;61997;53.974;11.670;2023-03-14T09:48:38;4.90;;;2.45;;
73693;SDS011;61997;53.974;11.670;2023-03-14T09:51:05;3.47;;;1.80;;
73693;SDS011;61997;53.974;11.670;2023-03-14T09:53:40;3.35;;;1.90;;
73693;SDS011;61997;53.974;11.670;2023-03-14T09:56:12;2.75;;;1.48;;
73693;SDS011;61997;53.974;11.670;2023-03-14T09:58:43;4.03;;;2.05;;
73693;SDS011;61997;53.974;11.670;2023-03-14T10:01:11;4.35;;;2.10;;
73693;SDS011;61997;53.974;11.670;2023-03-14T10:03:39;4.18;;;1.92;;
73693;SDS011;61997;53.974;11.670;2023-03-14T10:06:10;3.67;;;2.25;;
73693;SDS011;61997;53.974;11.670;2023-03-14T10:08:38;3.88;;;1.95;;
73693;SDS011;61997;53.974;11.670;2023-03-14T10:11:05;3.60;;;1.92;;
73693;SDS011;61997;53.974;11.670;2023-03-14T10:13:30;4.05;;;2.45;;
73693;SDS011;61997;53.974;11.670;2023-03-14T10:18:25;2.42;;;1.60;;
73693;SDS011;61997;53.974;11.670;2023-03-14T10:21:03;3.60;;;1.95;;
73693;SDS011;61997;53.974;11.670;2023-03-14T10:23:43;3.67;;;2.10;;
73693;SDS011;61997;53.974;11.670;2023-03-14T10:26:13;2.90;;;2.05;;
73693;SDS011;61997;53.974;11.670;2023-03-14T10:28:43;3.15;;;1.67;;
73693;SDS011;61997;53.974;11.670;2023-03-14T10:31:12;3.85;;;1.88;;
73693;SDS011;61997;53.974;11.670;2023-03-14T10:33:38;2.22;;;1.52;;
73693;SDS011;61997;53.974;11.670;2023-03-14T10:36:05;3.45;;;2.03;;
73693;SDS011;61997;53.974;11.670;2023-03-14T10:38:40;3.83;;;1.98;;
73693;SDS011;61997;53.974;11.670;2023-03-14T10:44:00;2.50;;;1.50;;
73693;SDS011;61997;53.974;11.670;2023-03-14T10:46:29;3.20;;;1.60;;
73693;SDS011;61997;53.974;11.670;2023-03-14T10:48:56;3.20;;;1.90;;
73693;SDS011;61997;53.974;11.670;2023-03-14T10:51:25;3.90;;;1.80;;
73693;SDS011;61997;53.974;11.670;2023-03-14T10:53:57;2.55;;;1.80;;
73693;SDS011;61997;53.974;11.670;2023-03-14T10:56:25;2.70;;;1.83;;
73693;SDS011;61997;53.974;11.670;2023-03-14T10:58:56;2.63;;;1.83;;
73693;SDS011;61997;53.974;11.670;2023-03-14T11:09:21;3.60;;;1.90;;
73693;SDS011;61997;53.974;11.670;2023-03-14T11:11:52;5.20;;;2.33;;
73693;SDS011;61997;53.974;11.670;2023-03-14T11:14:30;4.18;;;2.30;;
73693;SDS011;61997;53.974;11.670;2023-03-14T11:19:47;5.50;;;2.80;;
73693;SDS011;61997;53.974;11.670;2023-03-14T11:32:41;5.30;;;2.88;;
73693;SDS011;61997;53.974;11.670;2023-03-14T11:35:16;6.38;;;3.55;;
73693;SDS011;61997;53.974;11.670;2023-03-14T11:37:52;6.60;;;3.55;;
73693;SDS011;61997;53.974;11.670;2023-03-14T11:40:23;6.93;;;3.60;;
73693;SDS011;61997;53.974;11.670;2023-03-14T11:45:44;6.80;;;3.60;;
73693;SDS011;61997;53.974;11.670;2023-03-14T11:51:07;6.05;;;3.65;;
73693;SDS011;61997;53.974;11.670;2023-03-14T11:53:42;7.18;;;4.25;;
73693;SDS011;61997;53.974;11.670;2023-03-14T11:56:11;5.97;;;3.63;;
73693;SDS011;61997;53.974;11.670;2023-03-14T11:58:42;6.60;;;3.55;;
73693;SDS011;61997;53.974;11.670;2023-03-14T12:01:17;8.18;;;4.20;;
73693;SDS011;61997;53.974;11.670;2023-03-14T12:03:45;6.40;;;3.80;;
73693;SDS011;61997;53.974;11.670;2023-03-14T12:06:22;8.68;;;4.20;;
73693;SDS011;61997;53.974;11.670;2023-03-14T12:09:04;7.68;;;4.18;;
73693;SDS011;61997;53.974;11.670;2023-03-14T12:14:21;7.18;;;3.88;;
73693;SDS011;61997;53.974;11.670;2023-03-14T12:16:48;5.55;;;3.20;;
73693;SDS011;61997;53.974;11.670;2023-03-14T12:19:21;8.85;;;4.65;;
73693;SDS011;61997;53.974;11.670;2023-03-14T12:21:53;8.95;;;4.75;;
73693;SDS011;61997;53.974;11.670;2023-03-14T12:24:30;8.95;;;5.03;;
73693;SDS011;61997;53.974;11.670;2023-03-14T12:27:00;9.13;;;4.57;;
73693;SDS011;61997;53.974;11.670;2023-03-14T12:29:26;8.27;;;4.78;;
73693;SDS011;61997;53.974;11.670;2023-03-14T12:34:48;7.60;;;4.22;;
73693;SDS011;61997;53.974;11.670;2023-03-14T12:37:17;7.65;;;4.45;;
73693;SDS011;61997;53.974;11.670;2023-03-14T12:48:36;8.55;;;4.20;;
73693;SDS011;61997;53.974;11.670;2023-03-14T13:01:18;8.98;;;5.07;;
73693;SDS011;61997;53.974;11.670;2023-03-14T13:11:50;12.63;;;6.72;;
73693;SDS011;61997;53.974;11.670;2023-03-14T13:14:16;14.73;;;8.63;;
73693;SDS011;61997;53.974;11.670;2023-03-14T13:16:41;17.20;;;9.63;;
73693;SDS011;61997;53.974;11.670;2023-03-14T13:19:18;24.13;;;11.63;;
73693;SDS011;61997;53.974;11.670;2023-03-14T13:21:45;22.25;;;11.35;;
73693;SDS011;61997;53.974;11.670;2023-03-14T13:24:21;16.90;;;10.25;;
73693;SDS011;61997;53.974;11.670;2023-03-14T13:26:54;22.08;;;13.02;;
73693;SDS011;61997;53.974;11.670;2023-03-14T13:29:23;23.75;;;13.63;;
73693;SDS011;61997;53.974;11.670;2023-03-14T13:31:57;29.20;;;14.13;;
73693;SDS011;61997;53.974;11.670;2023-03-14T13:34:32;22.60;;;13.15;;
73693;SDS011;61997;53.974;11.670;2023-03-14T13:36:59;22.75;;;13.93;;
73693;SDS011;61997;53.974;11.670;2023-03-14T13:39:25;24.73;;;14.80;;
73693;SDS011;61997;53.974;11.670;2023-03-14T13:46:58;25.13;;;14.48;;
73693;SDS011;61997;53.974;11.670;2023-03-14T13:49:24;24.63;;;14.27;;
73693;SDS011;61997;53.974;11.670;2023-03-14T13:51:50;24.20;;;15.20;;
73693;SDS011;61997;53.974;11.670;2023-03-14T13:54:17;25.10;;;13.98;;
73693;SDS011;61997;53.974;11.670;2023-03-14T13:56:46;29.42;;;15.82;;
73693;SDS011;61997;53.974;11.670;2023-03-14T13:59:21;23.40;;;15.23;;
73693;SDS011;61997;53.974;11.670;2023-03-14T14:01:53;27.58;;;15.02;;
73693;SDS011;61997;53.974;11.670;2023-03-14T14:04:19;25.77;;;14.18;;
73693;SDS011;61997;53.974;11.670;2023-03-14T14:06:47;26.52;;;15.50;;
73693;SDS011;61997;53.974;11.670;2023-03-14T14:09:25;26.83;;;15.15;;
73693;SDS011;61997;53.974;11.670;2023-03-14T14:16:52;27.02;;;14.43;;
73693;SDS011;61997;53.974;11.670;2023-03-14T14:19:17;23.50;;;13.32;;
73693;SDS011;61997;53.974;11.670;2023-03-14T14:21:44;22.38;;;12.95;;
73693;SDS011;61997;53.974;11.670;2023-03-14T14:24:11;23.48;;;13.98;;
73693;SDS011;61997;53.974;11.670;2023-03-14T14:26:40;22.55;;;13.82;;
73693;SDS011;61997;53.974;11.670;2023-03-14T14:29:06;27.08;;;13.68;;
73693;SDS011;61997;53.974;11.670;2023-03-14T14:31:32;23.67;;;13.48;;
73693;SDS011;61997;53.974;11.670;2023-03-14T14:34:01;22.30;;;11.95;;
73693;SDS011;61997;53.974;11.670;2023-03-14T14:36:31;19.92;;;12.18;;
73693;SDS011;61997;53.974;11.670;2023-03-14T14:41:57;23.25;;;12.93;;
73693;SDS011;61997;53.974;11.670;2023-03-14T14:44:30;20.63;;;12.48;;
73693;SDS011;61997;53.974;11.670;2023-03-14T14:46:57;23.48;;;12.93;;
73693;SDS011;61997;53.974;11.670;2023-03-14T14:49:28;17.83;;;11.60;;
73693;SDS011;61997;53.974;11.670;2023-03-14T14:51:59;21.55;;;12.27;;
73693;SDS011;61997;53.974;11.670;2023-03-14T14:54:42;20.15;;;11.88;;
73693;SDS011;61997;53.974;11.670;2023-03-14T14:57:18;19.88;;;10.85;;
73693;SDS011;61997;53.974;11.670;2023-03-14T14:59:45;20.15;;;11.10;;
73693;SDS011;61997;53.974;11.670;2023-03-14T15:02:23;17.15;;;10.40;;
73693;SDS011;61997;53.974;11.670;2023-03-14T15:05:14;22.27;;;11.95;;
73693;SDS011;61997;53.974;11.670;2023-03-14T15:07:41;25.60;;;14.85;;
73693;SDS011;61997;53.974;11.670;2023-03-14T15:10:09;25.13;;;13.82;;
73693;SDS011;61997;53.974;11.670;2023-03-14T15:12:35;23.92;;;14.98;;
73693;SDS011;61997;53.974;11.670;2023-03-14T15:15:01;29.95;;;15.55;;
73693;SDS011;61997;53.974;11.670;2023-03-14T15:17:27;25.52;;;15.15;;
73693;SDS011;61997;53.974;11.670;2023-03-14T15:19:52;28.40;;;16.13;;
73693;SDS011;61997;53.974;11.670;2023-03-14T15:22:19;32.88;;;17.13;;
73693;SDS011;61997;53.974;11.670;2023-03-14T15:24:45;33.40;;;17.80;;
73693;SDS011;61997;53.974;11.670;2023-03-14T15:27:12;34.10;;;17.95;;
73693;SDS011;61997;53.974;11.670;2023-03-14T15:29:39;29.35;;;17.13;;
73693;SDS011;61997;53.974;11.670;2023-03-14T15:32:04;33.38;;;18.67;;
73693;SDS011;61997;53.974;11.670;2023-03-14T15:34:30;28.63;;;16.52;;
73693;SDS011;61997;53.974;11.670;2023-03-14T15:36:55;34.63;;;18.45;;
73693;SDS011;61997;53.974;11.670;2023-03-14T15:39:20;35.67;;;18.25;;
73693;SDS011;61997;53.974;11.670;2023-03-14T15:41:46;32.08;;;17.88;;
73693;SDS011;61997;53.974;11.670;2023-03-14T15:44:11;37.28;;;19.27;;
73693;SDS011;61997;53.974;11.670;2023-03-14T15:46:37;32.97;;;17.85;;
73693;SDS011;61997;53.974;11.670;2023-03-14T15:49:02;33.92;;;17.63;;
73693;SDS011;61997;53.974;11.670;2023-03-14T15:51:27;32.03;;;17.02;;